createdAt,value
2023-03-11T00:00:39.860Z,16.56
2023-03-11T00:03:08.851Z,16.53
2023-03-11T00:05:38.274Z,16.50
2023-03-11T00:08:06.155Z,16.47
2023-03-11T00:10:36.490Z,16.44
2023-03-11T00:13:04.720Z,16.41
2023-03-11T00:15:32.031Z,16.38
2023-03-11T00:17:59.366Z,16.37
2023-03-11T00:20:28.989Z,16.33
2023-03-11T00:22:56.177Z,16.30
2023-03-11T00:25:24.762Z,16.29
2023-03-11T00:27:51.417Z,16.25
2023-03-11T00:30:19.860Z,16.23
2023-03-11T00:32:51.673Z,16.22
2023-03-11T00:35:23.385Z,16.19
2023-03-11T00:37:54.102Z,16.16
2023-03-11T00:40:23.155Z,16.14
2023-03-11T00:42:49.659Z,16.13
2023-03-11T00:45:16.726Z,16.12
2023-03-11T00:47:43.550Z,16.09
2023-03-11T00:50:15.498Z,16.06
2023-03-11T00:52:42.030Z,16.04
2023-03-11T00:55:10.529Z,16.02
2023-03-11T00:57:37.066Z,16.01
2023-03-11T01:00:04.617Z,15.97
2023-03-11T01:02:31.232Z,15.94
2023-03-11T01:04:57.753Z,15.92
2023-03-11T01:07:24.261Z,15.91
2023-03-11T01:09:50.780Z,15.90
2023-03-11T01:12:17.344Z,15.87
2023-03-11T01:14:44.032Z,15.86
2023-03-11T01:17:10.714Z,15.83
2023-03-11T01:19:37.240Z,15.83
2023-03-11T01:22:04.002Z,15.80
2023-03-11T01:24:30.565Z,15.78
2023-03-11T01:26:57.144Z,15.76
2023-03-11T01:29:23.631Z,15.74
2023-03-11T01:31:50.161Z,15.72
2023-03-11T01:34:16.834Z,15.72
2023-03-11T01:36:43.356Z,15.70
2023-03-11T01:39:09.914Z,15.68
2023-03-11T01:41:36.514Z,15.67
2023-03-11T01:44:04.894Z,15.64
2023-03-11T01:46:37.373Z,15.63
2023-03-11T01:49:05.945Z,15.62
2023-03-11T01:51:36.992Z,15.59
2023-03-11T01:54:25.723Z,15.59
2023-03-11T01:56:53.331Z,15.58
2023-03-11T01:59:24.496Z,15.55
2023-03-11T02:01:58.725Z,15.54
2023-03-11T02:04:26.074Z,15.52
2023-03-11T02:06:54.157Z,15.52
2023-03-11T02:09:22.336Z,15.50
2023-03-11T02:11:48.872Z,15.48
2023-03-11T02:14:15.552Z,15.47
2023-03-11T02:16:42.053Z,15.46
2023-03-11T02:19:24.141Z,15.44
2023-03-11T02:21:51.478Z,15.44
2023-03-11T02:24:45.287Z,15.39
2023-03-11T02:27:13.977Z,15.42
2023-03-11T02:29:42.041Z,15.39
2023-03-11T02:32:10.276Z,15.38
2023-03-11T02:34:38.992Z,15.37
2023-03-11T02:37:08.901Z,15.35
2023-03-11T02:39:38.630Z,15.33
2023-03-11T02:42:14.217Z,15.26
2023-03-11T02:44:43.676Z,15.17
2023-03-11T02:47:10.695Z,15.18
2023-03-11T02:49:37.956Z,15.22
2023-03-11T02:52:05.029Z,15.26
2023-03-11T02:54:31.670Z,15.35
2023-03-11T02:56:58.290Z,15.41
2023-03-11T02:59:24.827Z,15.45
2023-03-11T03:01:51.297Z,15.52
2023-03-11T03:04:17.905Z,15.58
2023-03-11T03:06:44.416Z,15.61
2023-03-11T03:09:10.933Z,15.63
2023-03-11T03:11:37.498Z,15.61
2023-03-11T03:14:04.010Z,15.60
2023-03-11T03:16:30.618Z,15.55
2023-03-11T03:18:57.258Z,15.46
2023-03-11T03:21:23.834Z,15.36
2023-03-11T03:23:50.328Z,15.25
2023-03-11T03:26:16.847Z,15.16
2023-03-11T03:28:43.440Z,15.08
2023-03-11T03:31:11.002Z,15.00
2023-03-11T03:33:37.953Z,14.92
2023-03-11T03:36:09.849Z,14.84
2023-03-11T03:38:36.397Z,14.78
2023-03-11T03:41:03.044Z,14.72
2023-03-11T03:43:29.584Z,14.66
2023-03-11T03:46:06.186Z,14.59
2023-03-11T03:48:32.955Z,14.59
2023-03-11T03:51:08.428Z,14.55
2023-03-11T03:53:36.093Z,14.53
2023-03-11T03:56:08.538Z,14.52
2023-03-11T03:58:35.070Z,14.52
2023-03-11T04:01:02.162Z,14.49
2023-03-11T04:03:29.056Z,14.50
2023-03-11T04:06:06.245Z,14.52
2023-03-11T04:08:32.804Z,14.54
2023-03-11T04:10:59.345Z,14.61
2023-03-11T04:13:25.850Z,14.75
2023-03-11T04:15:52.391Z,14.88
2023-03-11T04:18:18.947Z,15.02
2023-03-11T04:20:46.477Z,15.13
2023-03-11T04:23:12.991Z,15.23
2023-03-11T04:25:39.525Z,15.30
2023-03-11T04:28:06.072Z,15.38
2023-03-11T04:30:32.663Z,15.43
2023-03-11T04:32:59.213Z,15.49
2023-03-11T04:35:25.749Z,15.53
2023-03-11T04:37:52.285Z,15.57
2023-03-11T04:40:18.880Z,15.59
2023-03-11T04:42:45.508Z,15.61
2023-03-11T04:45:12.190Z,15.64
2023-03-11T04:47:38.889Z,15.66
2023-03-11T04:50:06.042Z,15.67
2023-03-11T04:52:32.524Z,15.69
2023-03-11T04:54:59.029Z,15.68
2023-03-11T04:57:25.507Z,15.67
2023-03-11T04:59:51.978Z,15.64
2023-03-11T05:02:18.534Z,15.61
2023-03-11T05:04:45.411Z,15.60
2023-03-11T05:07:11.942Z,15.55
2023-03-11T05:09:38.826Z,15.52
2023-03-11T05:12:06.212Z,15.48
2023-03-11T05:14:32.848Z,15.40
2023-03-11T05:16:59.377Z,15.32
2023-03-11T05:19:32.289Z,15.24
2023-03-11T05:21:59.138Z,15.16
2023-03-11T05:24:26.211Z,15.11
2023-03-11T05:26:52.723Z,15.13
2023-03-11T05:29:19.493Z,15.15
2023-03-11T05:31:47.069Z,15.22
2023-03-11T05:34:14.322Z,15.28
2023-03-11T05:36:40.884Z,15.36
2023-03-11T05:39:07.661Z,15.44
2023-03-11T05:41:34.241Z,15.49
2023-03-11T05:44:00.761Z,15.54
2023-03-11T05:46:27.358Z,15.60
2023-03-11T05:48:54.071Z,15.61
2023-03-11T05:51:20.843Z,15.63
2023-03-11T05:53:48.760Z,15.64
2023-03-11T05:56:16.767Z,15.65
2023-03-11T05:58:43.666Z,15.65
2023-03-11T06:01:15.686Z,15.64
2023-03-11T06:03:43.089Z,15.63
2023-03-11T06:06:12.343Z,15.61
2023-03-11T06:08:39.332Z,15.61
2023-03-11T06:11:08.434Z,15.57
2023-03-11T06:13:35.987Z,15.54
2023-03-11T06:16:02.613Z,15.50
2023-03-11T06:18:29.134Z,15.46
2023-03-11T06:20:58.575Z,15.40
2023-03-11T06:23:25.490Z,15.36
2023-03-11T06:26:02.768Z,15.28
2023-03-11T06:28:30.149Z,15.22
2023-03-11T06:30:58.741Z,15.16
2023-03-11T06:33:25.808Z,15.11
2023-03-11T06:35:59.771Z,15.05
2023-03-11T06:38:27.194Z,15.03
2023-03-11T06:40:53.823Z,15.01
2023-03-11T06:43:22.181Z,15.01
2023-03-11T06:45:48.772Z,15.02
2023-03-11T06:48:15.378Z,15.00
2023-03-11T06:50:41.866Z,15.08
2023-03-11T06:53:08.394Z,15.17
2023-03-11T06:55:35.636Z,15.25
2023-03-11T06:58:02.573Z,15.33
2023-03-11T07:00:31.123Z,15.39
2023-03-11T07:02:57.969Z,15.43
2023-03-11T07:05:24.488Z,15.46
2023-03-11T07:07:54.504Z,15.50
2023-03-11T07:10:21.105Z,15.55
2023-03-11T07:12:47.632Z,15.58
2023-03-11T07:15:14.356Z,15.62
2023-03-11T07:17:40.886Z,15.61
2023-03-11T07:20:08.043Z,15.59
2023-03-11T07:22:34.537Z,15.56
2023-03-11T07:25:01.077Z,15.53
2023-03-11T07:27:28.185Z,15.54
2023-03-11T07:29:54.703Z,15.58
2023-03-11T07:32:21.260Z,15.69
2023-03-11T07:34:47.884Z,15.83
2023-03-11T07:37:14.447Z,15.96
2023-03-11T07:39:41.018Z,16.10
2023-03-11T07:42:07.709Z,16.21
2023-03-11T07:44:34.288Z,16.29
2023-03-11T07:47:06.010Z,16.39
2023-03-11T07:49:32.708Z,16.45
2023-03-11T07:51:59.207Z,16.53
2023-03-11T07:54:25.782Z,16.61
2023-03-11T07:56:52.299Z,16.66
2023-03-11T07:59:18.827Z,16.74
2023-03-11T08:01:47.245Z,16.80
2023-03-11T08:04:16.856Z,16.85
2023-03-11T08:06:46.282Z,16.91
2023-03-11T08:09:13.590Z,16.95
2023-03-11T08:11:40.536Z,17.01
2023-03-11T08:14:07.262Z,17.07
2023-03-11T08:16:33.956Z,17.10
2023-03-11T08:19:00.495Z,17.14
2023-03-11T08:21:31.801Z,17.17
2023-03-11T08:24:00.658Z,17.20
2023-03-11T08:26:28.052Z,17.22
2023-03-11T08:28:56.172Z,17.23
2023-03-11T08:31:31.421Z,17.24
2023-03-11T08:34:01.083Z,17.26
2023-03-11T08:36:27.793Z,17.27
2023-03-11T08:38:54.367Z,17.28
2023-03-11T08:41:20.903Z,17.32
2023-03-11T08:43:47.507Z,17.33
2023-03-11T08:46:22.823Z,17.35
2023-03-11T08:48:49.463Z,17.36
2023-03-11T08:51:16.292Z,17.38
2023-03-11T08:53:42.784Z,17.39
2023-03-11T08:56:09.544Z,17.41
2023-03-11T08:58:36.327Z,17.42
2023-03-11T09:01:03.881Z,17.44
2023-03-11T09:03:36.490Z,17.45
2023-03-11T09:06:06.088Z,17.48
2023-03-11T09:08:32.779Z,17.49
2023-03-11T09:10:59.353Z,17.52
2023-03-11T09:13:25.983Z,17.53
2023-03-11T09:15:53.488Z,17.55
2023-03-11T09:18:20.518Z,17.56
2023-03-11T09:20:47.151Z,17.58
2023-03-11T09:23:16.039Z,17.59
2023-03-11T09:25:42.832Z,17.63
2023-03-11T09:28:09.398Z,17.64
2023-03-11T09:30:36.060Z,17.66
2023-03-11T09:33:02.589Z,17.68
2023-03-11T09:35:29.179Z,17.72
2023-03-11T09:37:55.814Z,17.76
2023-03-11T09:40:25.628Z,17.80
2023-03-11T09:42:54.924Z,17.84
2023-03-11T09:45:29.920Z,17.90
2023-03-11T09:48:30.499Z,17.94
2023-03-11T09:51:03.145Z,18.00
2023-03-11T09:53:44.556Z,18.05
2023-03-11T09:56:15.096Z,18.11
2023-03-11T09:58:50.590Z,18.16
2023-03-11T10:01:33.287Z,18.18
2023-03-11T10:04:13.092Z,18.22
2023-03-11T10:06:41.803Z,18.25
2023-03-11T10:09:26.692Z,18.28
2023-03-11T10:12:08.578Z,18.30
2023-03-11T10:14:44.492Z,18.33
2023-03-11T10:17:35.051Z,18.35
2023-03-11T10:20:30.703Z,18.36
2023-03-11T10:23:25.216Z,18.36
2023-03-11T10:25:54.443Z,18.38
2023-03-11T10:28:25.129Z,18.38
2023-03-11T10:30:57.702Z,18.38
2023-03-11T10:33:32.125Z,18.35
2023-03-11T10:36:03.805Z,18.35
2023-03-11T10:38:39.447Z,18.33
2023-03-11T10:41:22.011Z,18.34
2023-03-11T10:44:00.089Z,18.38
2023-03-11T10:46:28.278Z,18.40
2023-03-11T10:48:55.382Z,18.44
2023-03-11T10:51:26.619Z,18.48
2023-03-11T10:53:56.005Z,18.52
2023-03-11T10:56:35.874Z,18.56
2023-03-11T10:59:04.386Z,18.62
2023-03-11T11:01:31.237Z,18.68
2023-03-11T11:04:01.034Z,18.71
2023-03-11T11:06:35.043Z,18.77
2023-03-11T11:09:06.435Z,18.79
2023-03-11T11:11:36.688Z,18.84
2023-03-11T11:14:03.288Z,18.87
2023-03-11T11:16:30.249Z,18.89
2023-03-11T11:19:07.878Z,18.91
2023-03-11T11:21:41.314Z,18.93
2023-03-11T11:24:28.371Z,18.93
2023-03-11T11:27:21.853Z,18.93
2023-03-11T11:30:10.440Z,18.95
2023-03-11T11:32:37.574Z,18.96
2023-03-11T11:35:07.287Z,18.96
2023-03-11T11:37:39.899Z,18.95
2023-03-11T11:40:15.766Z,18.95
2023-03-11T11:42:56.897Z,18.95
2023-03-11T11:45:35.879Z,18.93
2023-03-11T11:48:21.952Z,18.94
2023-03-11T11:50:55.703Z,18.94
2023-03-11T11:53:27.921Z,18.93
2023-03-11T11:55:54.775Z,18.96
2023-03-11T11:58:22.187Z,18.96
2023-03-11T12:01:36.362Z,18.94
2023-03-11T12:04:12.180Z,18.96
2023-03-11T12:06:44.472Z,18.98
2023-03-11T12:09:10.996Z,18.99
2023-03-11T12:12:05.171Z,18.99
2023-03-11T12:14:48.285Z,19.04
2023-03-11T12:17:17.902Z,19.06
2023-03-11T12:19:57.446Z,19.07
2023-03-11T12:22:42.007Z,19.10
2023-03-11T12:25:14.283Z,19.12
2023-03-11T12:27:50.070Z,19.12
2023-03-11T12:30:27.180Z,19.06
2023-03-11T12:33:01.908Z,18.91
2023-03-11T12:35:34.497Z,18.83
2023-03-11T12:38:13.165Z,18.83
2023-03-11T12:40:42.372Z,18.89
2023-03-11T12:43:30.029Z,18.93
2023-03-11T12:46:01.341Z,19.01
2023-03-11T12:48:27.837Z,19.08
2023-03-11T12:50:54.918Z,19.14
2023-03-11T12:53:42.664Z,19.19
2023-03-11T12:56:30.838Z,19.27
2023-03-11T12:59:22.205Z,19.32
2023-03-11T13:02:10.000Z,19.37
2023-03-11T13:04:54.110Z,19.43
2023-03-11T13:07:25.775Z,19.47
2023-03-11T13:10:33.559Z,19.49
2023-03-11T13:13:00.822Z,19.56
2023-03-11T13:15:36.963Z,19.60
2023-03-11T13:18:12.444Z,19.62
2023-03-11T13:20:39.226Z,19.66
2023-03-11T13:23:21.906Z,19.67
2023-03-11T13:25:49.785Z,19.72
2023-03-11T13:28:37.504Z,19.72
2023-03-11T13:31:17.771Z,19.75
2023-03-11T13:33:55.618Z,19.78
2023-03-11T13:36:40.368Z,19.79
2023-03-11T13:39:31.013Z,19.81
2023-03-11T13:41:57.727Z,19.84
2023-03-11T13:44:24.258Z,19.81
2023-03-11T13:46:57.094Z,19.83
2023-03-11T13:49:31.089Z,19.84
2023-03-11T13:51:59.271Z,19.84
2023-03-11T13:55:04.734Z,19.83
2023-03-11T13:57:33.562Z,19.86
2023-03-11T14:00:18.102Z,19.84
2023-03-11T14:02:55.429Z,19.85
2023-03-11T14:05:30.085Z,19.87
2023-03-11T14:08:12.502Z,19.86
2023-03-11T14:10:39.449Z,19.88
2023-03-11T14:13:14.242Z,19.87
2023-03-11T14:15:47.838Z,19.87
2023-03-11T14:18:29.600Z,19.87
2023-03-11T14:20:57.252Z,19.87
2023-03-11T14:23:28.902Z,19.87
2023-03-11T14:26:04.950Z,19.87
2023-03-11T14:28:35.115Z,19.87
2023-03-11T14:31:03.491Z,19.86
2023-03-11T14:33:30.135Z,19.86
2023-03-11T14:36:00.001Z,19.85
2023-03-11T14:38:29.836Z,19.83
2023-03-11T14:41:06.860Z,19.83
2023-03-11T14:43:37.470Z,19.83
2023-03-11T14:46:05.980Z,19.82
2023-03-11T14:48:39.062Z,19.81
2023-03-11T14:51:22.412Z,19.81
2023-03-11T14:54:15.547Z,19.79
2023-03-11T14:56:47.576Z,19.79
2023-03-11T14:59:26.859Z,19.78
2023-03-11T15:01:57.518Z,19.76
2023-03-11T15:04:27.467Z,19.72
2023-03-11T15:06:55.100Z,19.69
2023-03-11T15:09:23.921Z,19.67
2023-03-11T15:11:57.443Z,19.62
2023-03-11T15:14:23.982Z,19.60
2023-03-11T15:16:52.177Z,19.57
2023-03-11T15:19:27.709Z,19.55
2023-03-11T15:21:58.588Z,19.53
2023-03-11T15:24:28.314Z,19.50
2023-03-11T15:27:02.287Z,19.49
2023-03-11T15:29:30.743Z,19.49
2023-03-11T15:31:58.813Z,19.48
2023-03-11T15:34:33.439Z,19.45
2023-03-11T15:37:20.501Z,19.43
2023-03-11T15:39:51.060Z,19.43
2023-03-11T15:42:24.393Z,19.42
2023-03-11T15:45:19.785Z,19.38
2023-03-11T15:47:48.829Z,19.40
2023-03-11T15:50:50.634Z,19.37
2023-03-11T15:53:20.095Z,19.37
2023-03-11T15:55:47.443Z,19.36
2023-03-11T15:58:19.255Z,19.35
2023-03-11T16:00:51.476Z,19.35
2023-03-11T16:03:18.620Z,19.36
2023-03-11T16:05:45.563Z,19.33
2023-03-11T16:08:12.428Z,19.33
2023-03-11T16:10:40.720Z,19.32
2023-03-11T16:13:11.933Z,19.30
2023-03-11T16:15:38.766Z,19.30
2023-03-11T16:18:08.654Z,19.24
2023-03-11T16:20:49.800Z,19.19
2023-03-11T16:23:21.138Z,19.19
2023-03-11T16:25:48.666Z,19.22
2023-03-11T16:28:17.004Z,19.19
2023-03-11T16:30:44.059Z,19.29
2023-03-11T16:33:10.765Z,19.38
2023-03-11T16:35:38.087Z,19.48
2023-03-11T16:38:04.716Z,19.57
2023-03-11T16:40:32.656Z,19.64
2023-03-11T16:43:04.733Z,19.71
2023-03-11T16:45:31.529Z,19.79
2023-03-11T16:47:58.275Z,19.85
2023-03-11T16:50:24.932Z,19.90
2023-03-11T16:52:55.361Z,19.96
2023-03-11T16:55:22.569Z,20.01
2023-03-11T16:57:49.163Z,20.06
2023-03-11T17:00:17.961Z,20.11
2023-03-11T17:02:45.273Z,20.15
2023-03-11T17:05:11.851Z,20.17
2023-03-11T17:07:40.051Z,20.20
2023-03-11T17:10:08.454Z,20.25
2023-03-11T17:12:36.027Z,20.28
2023-03-11T17:15:04.045Z,20.30
2023-03-11T17:17:30.605Z,20.31
2023-03-11T17:19:57.132Z,20.32
2023-03-11T17:22:23.738Z,20.34
2023-03-11T17:24:50.241Z,20.34
2023-03-11T17:27:16.757Z,20.34
2023-03-11T17:29:43.333Z,20.31
2023-03-11T17:32:16.797Z,20.25
2023-03-11T17:34:43.705Z,20.19
2023-03-11T17:37:10.306Z,20.14
2023-03-11T17:39:36.862Z,20.11
2023-03-11T17:42:03.485Z,20.08
2023-03-11T17:44:35.401Z,20.08
2023-03-11T17:47:11.299Z,20.04
2023-03-11T17:49:37.967Z,19.99
2023-03-11T17:52:04.896Z,19.92
2023-03-11T17:54:31.787Z,19.84
2023-03-11T17:56:58.373Z,19.77
2023-03-11T17:59:24.884Z,19.70
2023-03-11T18:01:51.595Z,19.63
2023-03-11T18:04:18.210Z,19.54
2023-03-11T18:06:44.717Z,19.48
2023-03-11T18:09:11.378Z,19.49
2023-03-11T18:11:38.007Z,19.55
2023-03-11T18:14:04.599Z,19.62
2023-03-11T18:16:32.156Z,19.68
2023-03-11T18:18:58.782Z,19.75
2023-03-11T18:21:28.043Z,19.81
2023-03-11T18:24:00.054Z,19.85
2023-03-11T18:26:28.939Z,19.87
2023-03-11T18:28:56.982Z,19.87
2023-03-11T18:31:24.806Z,19.87
2023-03-11T18:33:57.259Z,19.83
2023-03-11T18:36:29.310Z,19.79
2023-03-11T18:38:58.208Z,19.73
2023-03-11T18:41:26.196Z,19.70
2023-03-11T18:43:59.803Z,19.66
2023-03-11T18:46:33.602Z,19.64
2023-03-11T18:49:02.450Z,19.61
2023-03-11T18:51:31.467Z,19.55
2023-03-11T18:53:59.244Z,19.53
2023-03-11T18:56:26.997Z,19.49
2023-03-11T18:58:55.300Z,19.46
2023-03-11T19:01:22.175Z,19.45
2023-03-11T19:03:52.137Z,19.45
2023-03-11T19:06:19.374Z,19.47
2023-03-11T19:08:45.923Z,19.46
2023-03-11T19:11:18.642Z,19.44
2023-03-11T19:13:47.296Z,19.42
2023-03-11T19:16:20.114Z,19.41
2023-03-11T19:18:47.189Z,19.38
2023-03-11T19:21:14.956Z,19.34
2023-03-11T19:23:41.665Z,19.32
2023-03-11T19:26:08.469Z,19.30
2023-03-11T19:28:35.534Z,19.24
2023-03-11T19:31:02.528Z,19.22
2023-03-11T19:33:29.187Z,19.19
2023-03-11T19:35:58.213Z,19.14
2023-03-11T19:38:28.826Z,19.11
2023-03-11T19:41:00.504Z,19.05
2023-03-11T19:43:27.788Z,19.04
2023-03-11T19:45:54.344Z,19.00
2023-03-11T19:48:20.953Z,18.95
2023-03-11T19:50:49.262Z,18.89
2023-03-11T19:53:16.806Z,18.85
2023-03-11T19:55:48.171Z,18.81
2023-03-11T19:58:14.896Z,18.79
2023-03-11T20:00:42.854Z,18.74
2023-03-11T20:03:16.525Z,18.71
2023-03-11T20:05:44.376Z,18.68
2023-03-11T20:08:13.032Z,18.70
2023-03-11T20:10:44.834Z,18.64
2023-03-11T20:13:12.094Z,18.65
2023-03-11T20:15:38.736Z,18.61
2023-03-11T20:18:06.230Z,18.58
2023-03-11T20:20:34.322Z,18.59
2023-03-11T20:23:02.033Z,18.59
2023-03-11T20:25:32.256Z,18.57
2023-03-11T20:28:00.302Z,18.58
2023-03-11T20:30:28.280Z,18.57
2023-03-11T20:32:55.458Z,18.56
2023-03-11T20:35:22.322Z,18.57
2023-03-11T20:37:48.949Z,18.58
2023-03-11T20:40:17.357Z,18.57
2023-03-11T20:42:46.863Z,18.58
2023-03-11T20:45:21.559Z,18.58
2023-03-11T20:47:49.360Z,18.57
2023-03-11T20:50:16.668Z,18.56
2023-03-11T20:52:43.256Z,18.57
2023-03-11T20:55:10.662Z,18.57
2023-03-11T20:57:38.416Z,18.58
2023-03-11T21:00:11.602Z,18.57
2023-03-11T21:02:43.037Z,18.59
2023-03-11T21:05:10.545Z,18.59
2023-03-11T21:07:37.303Z,18.60
2023-03-11T21:10:10.162Z,18.60
2023-03-11T21:12:36.701Z,18.62
2023-03-11T21:15:03.878Z,18.64
2023-03-11T21:17:30.740Z,18.63
2023-03-11T21:19:57.415Z,18.64
2023-03-11T21:22:23.956Z,18.63
2023-03-11T21:24:54.107Z,18.64
2023-03-11T21:27:26.053Z,18.63
2023-03-11T21:29:53.955Z,18.63
2023-03-11T21:32:20.638Z,18.62
2023-03-11T21:34:47.474Z,18.63
2023-03-11T21:37:14.297Z,18.61
2023-03-11T21:39:40.927Z,18.61
2023-03-11T21:42:07.680Z,18.60
2023-03-11T21:44:34.384Z,18.59
2023-03-11T21:47:00.977Z,18.58
2023-03-11T21:49:27.540Z,18.57
2023-03-11T21:51:54.199Z,18.54
2023-03-11T21:54:20.737Z,18.52
2023-03-11T21:56:47.293Z,18.49
2023-03-11T21:59:14.044Z,18.47
2023-03-11T22:01:40.770Z,18.43
2023-03-11T22:04:07.538Z,18.40
2023-03-11T22:06:34.341Z,18.37
2023-03-11T22:09:01.412Z,18.33
2023-03-11T22:11:28.493Z,18.30
2023-03-11T22:13:57.246Z,18.25
2023-03-11T22:16:25.159Z,18.22
2023-03-11T22:18:53.142Z,18.18
2023-03-11T22:21:20.697Z,18.14
2023-03-11T22:23:48.000Z,18.11
2023-03-11T22:26:15.780Z,18.09
2023-03-11T22:28:42.752Z,18.05
2023-03-11T22:31:11.692Z,18.01
2023-03-11T22:33:38.385Z,17.97
2023-03-11T22:36:05.994Z,17.94
2023-03-11T22:38:34.087Z,17.91
2023-03-11T22:41:00.672Z,17.89
2023-03-11T22:43:27.530Z,17.86
2023-03-11T22:45:54.305Z,17.83
2023-03-11T22:48:20.922Z,17.81
2023-03-11T22:50:47.535Z,17.79
2023-03-11T22:53:15.525Z,17.75
2023-03-11T22:55:43.582Z,17.73
2023-03-11T22:58:11.043Z,17.69
2023-03-11T23:00:37.882Z,17.67
2023-03-11T23:03:04.601Z,17.65
2023-03-11T23:05:31.364Z,17.63
2023-03-11T23:07:57.935Z,17.59
2023-03-11T23:10:24.428Z,17.57
2023-03-11T23:12:50.947Z,17.56
2023-03-11T23:15:19.213Z,17.53
2023-03-11T23:17:45.773Z,17.53
2023-03-11T23:20:15.144Z,17.50
2023-03-11T23:22:42.396Z,17.49
2023-03-11T23:25:13.069Z,17.46
2023-03-11T23:27:39.847Z,17.43
2023-03-11T23:30:07.408Z,17.42
2023-03-11T23:32:34.470Z,17.39
2023-03-11T23:35:01.017Z,17.38
2023-03-11T23:37:27.558Z,17.35
2023-03-11T23:39:54.059Z,17.34
2023-03-11T23:42:25.742Z,17.31
2023-03-11T23:44:53.290Z,17.30
2023-03-11T23:47:19.916Z,17.27
2023-03-11T23:49:46.436Z,17.25
2023-03-11T23:52:13.003Z,17.22
2023-03-11T23:54:39.502Z,17.22
2023-03-11T23:57:06.017Z,17.19
2023-03-11T23:59:32.627Z,17.17
